createdAt,value
2019-05-26T00:00:48.147Z,3.77
2019-05-26T00:03:18.492Z,3.25
2019-05-26T00:05:48.786Z,2.67
2019-05-26T00:08:19.296Z,2.22
2019-05-26T00:10:49.578Z,2.67
2019-05-26T00:13:20.191Z,2.30
2019-05-26T00:15:50.487Z,4.10
2019-05-26T00:18:20.764Z,3.27
2019-05-26T00:20:51.058Z,4.00
2019-05-26T00:23:21.335Z,3.40
2019-05-26T00:25:51.618Z,4.20
2019-05-26T00:28:21.903Z,3.33
2019-05-26T00:30:52.188Z,5.22
2019-05-26T00:33:22.522Z,4.07
2019-05-26T00:35:52.788Z,3.15
2019-05-26T00:38:23.067Z,4.00
2019-05-26T00:40:53.724Z,3.43
2019-05-26T00:43:24.354Z,3.12
2019-05-26T00:45:56.563Z,4.15
2019-05-26T00:48:27.107Z,3.03
2019-05-26T00:50:57.452Z,4.45
2019-05-26T00:53:27.817Z,4.92
2019-05-26T00:55:58.095Z,5.28
2019-05-26T00:58:28.387Z,4.58
2019-05-26T01:00:58.748Z,2.87
2019-05-26T01:03:29.107Z,3.53
2019-05-26T01:05:59.625Z,4.35
2019-05-26T01:08:30.155Z,4.30
2019-05-26T01:11:01.572Z,3.55
2019-05-26T01:13:32.391Z,2.26
2019-05-26T01:16:03.802Z,3.77
2019-05-26T01:18:35.321Z,6.88
2019-05-26T01:21:06.724Z,5.67
2019-05-26T01:23:37.009Z,4.42
2019-05-26T01:26:07.388Z,6.08
2019-05-26T01:28:37.674Z,4.40
2019-05-26T01:31:08.496Z,6.67
2019-05-26T01:33:38.770Z,3.30
2019-05-26T01:36:09.064Z,3.95
2019-05-26T01:38:40.554Z,2.45
2019-05-26T01:41:10.842Z,2.03
2019-05-26T01:43:41.358Z,2.22
2019-05-26T01:46:11.645Z,3.15
2019-05-26T01:48:42.006Z,2.08
2019-05-26T01:51:12.288Z,3.62
2019-05-26T01:53:42.585Z,2.15
2019-05-26T01:56:12.867Z,2.30
2019-05-26T01:58:43.168Z,2.25
2019-05-26T02:01:13.458Z,3.15
2019-05-26T02:03:44.097Z,3.08
2019-05-26T02:06:14.391Z,3.17
2019-05-26T02:08:44.670Z,5.37
2019-05-26T02:11:15.028Z,2.22
2019-05-26T02:13:45.318Z,3.75
2019-05-26T02:16:15.603Z,2.90
2019-05-26T02:18:45.898Z,2.55
2019-05-26T02:21:16.213Z,2.63
2019-05-26T02:23:46.492Z,2.67
2019-05-26T02:26:17.021Z,2.30
2019-05-26T02:28:47.301Z,2.60
2019-05-26T02:31:17.595Z,3.45
2019-05-26T02:33:47.884Z,5.70
2019-05-26T02:36:18.185Z,2.47
2019-05-26T02:39:00.909Z,2.20
2019-05-26T02:41:20.442Z,4.53
2019-05-26T02:43:50.806Z,4.37
2019-05-26T02:46:21.088Z,3.80
2019-05-26T02:48:51.369Z,4.50
2019-05-26T02:51:21.660Z,3.47
2019-05-26T02:53:51.954Z,4.72
2019-05-26T02:56:23.145Z,3.45
2019-05-26T02:58:53.435Z,3.15
2019-05-26T03:01:24.799Z,3.72
2019-05-26T03:03:55.150Z,3.75
2019-05-26T03:06:28.141Z,3.92
2019-05-26T03:09:21.246Z,4.60
2019-05-26T03:11:37.471Z,4.25
2019-05-26T03:14:10.743Z,4.12
2019-05-26T03:16:45.698Z,4.33
2019-05-26T03:19:18.935Z,3.92
2019-05-26T03:21:53.310Z,3.20
2019-05-26T03:24:28.829Z,4.02
2019-05-26T03:26:59.250Z,4.17
2019-05-26T03:29:29.539Z,3.60
2019-05-26T03:32:00.955Z,3.50
2019-05-26T03:34:31.249Z,4.08
2019-05-26T03:37:01.539Z,4.17
2019-05-26T03:39:44.552Z,3.70
2019-05-26T03:42:04.001Z,5.10
2019-05-26T03:44:34.248Z,5.15
2019-05-26T03:47:04.532Z,3.95
2019-05-26T03:49:34.818Z,4.10
2019-05-26T03:52:05.575Z,5.15
2019-05-26T03:54:35.850Z,3.80
2019-05-26T03:57:06.158Z,4.67
2019-05-26T03:59:36.451Z,6.35
2019-05-26T04:02:06.950Z,4.87
2019-05-26T04:04:37.232Z,4.83
2019-05-26T04:07:07.517Z,4.72
2019-05-26T04:09:37.799Z,4.60
2019-05-26T04:12:08.158Z,5.53
2019-05-26T04:14:38.466Z,4.80
2019-05-26T04:17:08.762Z,5.87
2019-05-26T04:19:39.025Z,4.37
2019-05-26T04:22:09.302Z,4.60
2019-05-26T04:24:42.097Z,4.80
2019-05-26T04:27:12.383Z,6.00
2019-05-26T04:29:42.684Z,4.62
2019-05-26T04:32:12.964Z,4.78
2019-05-26T04:34:43.265Z,5.00
2019-05-26T04:37:13.553Z,5.28
2019-05-26T04:39:43.857Z,5.28
2019-05-26T04:42:14.133Z,5.22
2019-05-26T04:44:44.426Z,5.12
2019-05-26T04:47:14.719Z,5.17
2019-05-26T04:49:45.003Z,4.33
2019-05-26T04:52:15.364Z,4.96
2019-05-26T04:54:45.654Z,5.45
2019-05-26T04:57:15.974Z,4.60
2019-05-26T04:59:46.262Z,5.90
2019-05-26T05:02:16.782Z,4.55
2019-05-26T05:04:47.080Z,4.25
2019-05-26T05:07:17.407Z,4.50
2019-05-26T05:09:47.699Z,6.87
2019-05-26T05:12:18.193Z,4.37
2019-05-26T05:14:48.471Z,4.75
2019-05-26T05:17:18.978Z,5.75
2019-05-26T05:19:49.515Z,5.65
2019-05-26T05:22:19.795Z,5.85
2019-05-26T05:24:50.088Z,5.03
2019-05-26T05:27:20.380Z,5.12
2019-05-26T05:29:50.667Z,5.25
2019-05-26T05:32:20.963Z,7.20
2019-05-26T05:34:51.256Z,6.83
2019-05-26T05:37:25.084Z,6.87
2019-05-26T05:39:53.597Z,7.05
2019-05-26T05:42:24.761Z,6.84
2019-05-26T05:44:55.053Z,5.95
2019-05-26T05:47:25.642Z,5.43
2019-05-26T05:49:55.921Z,5.80
2019-05-26T05:52:26.291Z,7.53
2019-05-26T05:54:56.559Z,7.25
2019-05-26T05:57:26.856Z,8.98
2019-05-26T05:59:57.137Z,5.33
2019-05-26T06:02:27.427Z,7.90
2019-05-26T06:04:57.710Z,5.25
2019-05-26T06:07:28.015Z,6.53
2019-05-26T06:09:58.313Z,5.37
2019-05-26T06:12:28.614Z,9.58
2019-05-26T06:14:58.900Z,8.70
2019-05-26T06:17:29.227Z,7.12
2019-05-26T06:19:59.538Z,7.20
2019-05-26T06:22:30.083Z,8.00
2019-05-26T06:25:00.357Z,6.03
2019-05-26T06:27:30.636Z,7.47
2019-05-26T06:30:00.953Z,7.70
2019-05-26T06:32:31.229Z,6.83
2019-05-26T06:35:01.510Z,6.10
2019-05-26T06:37:31.790Z,6.75
2019-05-26T06:40:02.088Z,8.95
2019-05-26T06:42:32.352Z,10.10
2019-05-26T06:45:02.641Z,9.30
2019-05-26T06:47:32.913Z,8.95
2019-05-26T06:50:05.005Z,13.60
2019-05-26T06:52:35.378Z,10.98
2019-05-26T06:55:07.360Z,11.87
2019-05-26T06:57:37.714Z,12.43
2019-05-26T07:00:08.878Z,12.10
2019-05-26T07:02:42.338Z,16.00
2019-05-26T07:05:13.230Z,12.03
2019-05-26T07:07:43.545Z,9.82
2019-05-26T07:10:15.298Z,10.60
2019-05-26T07:12:45.587Z,13.27
2019-05-26T07:15:16.107Z,9.83
2019-05-26T07:17:46.464Z,12.03
2019-05-26T07:20:17.386Z,9.70
2019-05-26T07:22:47.963Z,11.75
2019-05-26T07:25:18.307Z,10.17
2019-05-26T07:27:48.629Z,10.03
2019-05-26T07:30:23.342Z,12.45
2019-05-26T07:32:51.626Z,13.90
2019-05-26T07:35:22.185Z,10.95
2019-05-26T07:37:52.478Z,11.78
2019-05-26T07:40:23.089Z,12.63
2019-05-26T07:42:53.383Z,11.10
2019-05-26T07:45:23.769Z,12.63
2019-05-26T07:47:54.064Z,11.68
2019-05-26T07:50:24.377Z,11.83
2019-05-26T07:52:54.732Z,11.18
2019-05-26T07:55:25.295Z,12.92
2019-05-26T07:57:55.943Z,12.50
2019-05-26T08:00:26.440Z,10.43
2019-05-26T08:02:56.994Z,11.83
2019-05-26T08:05:27.279Z,10.05
2019-05-26T08:08:11.463Z,12.28
2019-05-26T08:10:29.805Z,13.58
2019-05-26T08:13:00.101Z,7.10
2019-05-26T08:15:30.418Z,6.70
2019-05-26T08:18:00.982Z,7.10
2019-05-26T08:20:31.259Z,6.75
2019-05-26T08:23:01.544Z,7.27
2019-05-26T08:25:31.821Z,5.50
2019-05-26T08:28:02.114Z,7.73
2019-05-26T08:30:32.422Z,6.10
2019-05-26T08:33:02.761Z,6.22
2019-05-26T08:35:36.472Z,3.80
2019-05-26T08:38:06.810Z,6.40
2019-05-26T08:40:37.151Z,4.40
2019-05-26T08:43:07.445Z,4.70
2019-05-26T08:45:37.728Z,6.67
2019-05-26T08:48:08.006Z,5.28
2019-05-26T08:50:38.493Z,7.67
2019-05-26T08:53:08.783Z,6.17
2019-05-26T08:55:39.063Z,5.85
2019-05-26T08:58:09.352Z,5.10
2019-05-26T09:00:39.978Z,4.78
2019-05-26T09:03:10.256Z,3.67
2019-05-26T09:05:40.539Z,4.33
2019-05-26T09:08:10.817Z,3.95
2019-05-26T09:10:41.102Z,7.47
2019-05-26T09:13:11.609Z,4.42
2019-05-26T09:15:43.628Z,3.25
2019-05-26T09:18:14.203Z,3.47
2019-05-26T09:20:44.490Z,4.40
2019-05-26T09:23:14.763Z,6.97
2019-05-26T09:25:46.661Z,6.10
2019-05-26T09:28:17.112Z,4.95
2019-05-26T09:30:47.433Z,3.92
2019-05-26T09:33:17.990Z,4.33
2019-05-26T09:35:48.619Z,7.65
2019-05-26T09:38:19.704Z,3.75
2019-05-26T09:40:49.985Z,5.12
2019-05-26T09:43:20.512Z,4.25
2019-05-26T09:45:50.785Z,6.70
2019-05-26T09:48:21.090Z,4.08
2019-05-26T09:50:51.693Z,4.47
2019-05-26T09:53:21.976Z,5.17
2019-05-26T09:55:52.256Z,4.70
2019-05-26T09:58:22.530Z,3.80
2019-05-26T10:00:52.834Z,4.42
2019-05-26T10:03:23.108Z,5.05
2019-05-26T10:05:53.395Z,3.80
2019-05-26T10:08:23.682Z,4.08
2019-05-26T10:10:53.955Z,3.70
2019-05-26T10:13:31.704Z,3.92
2019-05-26T10:15:56.472Z,3.60
2019-05-26T10:18:26.748Z,6.20
2019-05-26T10:20:57.119Z,3.52
2019-05-26T10:23:27.426Z,4.17
2019-05-26T10:25:57.705Z,8.50
2019-05-26T10:28:27.982Z,5.30
2019-05-26T10:30:58.257Z,3.80
2019-05-26T10:33:28.537Z,5.47
2019-05-26T10:35:58.813Z,3.98
2019-05-26T10:38:29.100Z,5.95
2019-05-26T10:40:59.377Z,4.12
2019-05-26T10:43:29.656Z,4.45
2019-05-26T10:46:00.413Z,6.67
2019-05-26T10:48:30.686Z,3.80
2019-05-26T10:51:00.970Z,4.17
2019-05-26T10:53:31.262Z,3.65
2019-05-26T10:56:01.544Z,4.72
2019-05-26T10:58:32.089Z,3.85
2019-05-26T11:01:02.542Z,3.70
2019-05-26T11:03:33.921Z,3.47
2019-05-26T11:06:04.817Z,4.35
2019-05-26T11:08:35.110Z,2.90
2019-05-26T11:11:05.463Z,4.22
2019-05-26T11:13:35.746Z,3.73
2019-05-26T11:16:06.158Z,4.00
2019-05-26T11:18:36.440Z,3.67
2019-05-26T11:21:06.869Z,4.20
2019-05-26T11:23:37.151Z,4.00
2019-05-26T11:26:07.441Z,4.03
2019-05-26T11:28:37.713Z,3.42
2019-05-26T11:31:08.013Z,4.28
2019-05-26T11:33:38.289Z,3.33
2019-05-26T11:36:08.589Z,3.80
2019-05-26T11:38:38.873Z,3.40
2019-05-26T11:41:09.376Z,4.87
2019-05-26T11:43:39.827Z,3.00
2019-05-26T11:46:10.944Z,4.35
2019-05-26T11:48:41.260Z,3.42
2019-05-26T11:51:11.533Z,3.42
2019-05-26T11:53:41.819Z,3.90
2019-05-26T11:56:12.088Z,3.80
2019-05-26T11:58:43.384Z,3.40
2019-05-26T12:01:13.662Z,3.85
2019-05-26T12:03:43.945Z,3.97
2019-05-26T12:06:14.229Z,3.80
2019-05-26T12:08:44.763Z,4.00
2019-05-26T12:11:15.042Z,4.10
2019-05-26T12:13:45.313Z,4.53
2019-05-26T12:16:16.575Z,3.23
2019-05-26T12:18:46.849Z,3.52
2019-05-26T12:21:17.173Z,3.45
2019-05-26T12:23:47.735Z,3.65
2019-05-26T12:26:18.034Z,3.17
2019-05-26T12:28:48.312Z,2.70
2019-05-26T12:31:18.594Z,2.50
2019-05-26T12:33:48.866Z,2.55
2019-05-26T12:36:19.151Z,4.50
2019-05-26T12:38:52.184Z,2.87
2019-05-26T12:41:23.077Z,2.65
2019-05-26T12:43:53.359Z,2.92
2019-05-26T12:46:23.634Z,2.45
2019-05-26T12:48:53.909Z,2.58
2019-05-26T12:51:24.188Z,2.20
2019-05-26T12:53:54.550Z,2.72
2019-05-26T12:56:24.824Z,1.70
2019-05-26T12:58:55.177Z,1.70
2019-05-26T13:01:25.978Z,1.67
2019-05-26T13:03:56.262Z,3.08
2019-05-26T13:06:26.563Z,2.85
2019-05-26T13:08:56.882Z,1.55
2019-05-26T13:11:27.159Z,1.82
2019-05-26T13:13:57.920Z,2.98
2019-05-26T13:16:29.308Z,1.87
2019-05-26T13:18:59.830Z,2.27
2019-05-26T13:21:30.109Z,1.67
2019-05-26T13:24:00.396Z,1.65
2019-05-26T13:26:30.679Z,2.55
2019-05-26T13:29:00.974Z,1.67
2019-05-26T13:31:31.264Z,1.77
2019-05-26T13:34:01.548Z,1.50
2019-05-26T13:36:31.860Z,1.80
2019-05-26T13:39:02.132Z,2.27
2019-05-26T13:41:32.418Z,2.30
2019-05-26T13:44:02.695Z,2.42
2019-05-26T13:46:32.979Z,1.90
2019-05-26T13:49:03.262Z,1.55
2019-05-26T13:51:33.554Z,1.30
2019-05-26T13:54:03.900Z,1.35
2019-05-26T13:56:34.579Z,1.20
2019-05-26T13:59:04.939Z,4.25
2019-05-26T14:01:35.228Z,1.43
2019-05-26T14:04:06.112Z,1.40
2019-05-26T14:06:36.887Z,2.07
2019-05-26T14:09:09.862Z,1.40
2019-05-26T14:11:40.500Z,1.20
2019-05-26T14:14:10.801Z,1.05
2019-05-26T14:16:43.564Z,2.05
2019-05-26T14:19:15.648Z,1.20
2019-05-26T14:21:45.929Z,1.72
2019-05-26T14:24:16.203Z,1.35
2019-05-26T14:26:46.495Z,1.47
2019-05-26T14:29:16.767Z,1.60
2019-05-26T14:31:47.049Z,1.20
2019-05-26T14:34:17.616Z,1.43
2019-05-26T14:36:47.970Z,1.90
2019-05-26T14:39:18.254Z,1.37
2019-05-26T14:41:48.795Z,3.40
2019-05-26T14:44:19.070Z,1.82
2019-05-26T14:46:49.575Z,1.75
2019-05-26T14:49:20.807Z,2.92
2019-05-26T14:51:52.218Z,1.47
2019-05-26T14:54:22.494Z,1.57
2019-05-26T14:56:52.785Z,1.97
2019-05-26T14:59:23.336Z,1.52
2019-05-26T15:01:53.642Z,2.12
2019-05-26T15:04:23.891Z,1.40
2019-05-26T15:06:54.183Z,4.58
2019-05-26T15:09:25.542Z,1.30
2019-05-26T15:11:55.920Z,1.30
2019-05-26T15:14:26.491Z,2.02
2019-05-26T15:16:56.774Z,1.32
2019-05-26T15:19:27.056Z,1.37
2019-05-26T15:21:57.327Z,1.67
2019-05-26T15:24:27.729Z,2.40
2019-05-26T15:26:58.008Z,1.50
2019-05-26T15:29:28.276Z,1.30
2019-05-26T15:31:58.569Z,1.22
2019-05-26T15:34:29.435Z,1.65
2019-05-26T15:36:59.705Z,1.42
2019-05-26T15:39:29.996Z,1.30
2019-05-26T15:42:00.360Z,2.75
2019-05-26T15:44:30.859Z,1.70
2019-05-26T15:47:01.130Z,1.60
2019-05-26T15:49:31.424Z,1.20
2019-05-26T15:52:01.690Z,1.90
2019-05-26T15:54:31.974Z,1.70
2019-05-26T15:57:02.247Z,1.70
2019-05-26T15:59:32.539Z,2.20
2019-05-26T16:02:02.813Z,1.60
2019-05-26T16:04:33.093Z,1.30
2019-05-26T16:07:03.489Z,1.80
2019-05-26T16:09:33.787Z,1.80
2019-05-26T16:12:04.131Z,2.90
2019-05-26T16:14:34.647Z,1.60
2019-05-26T16:17:05.129Z,2.52
2019-05-26T16:19:35.476Z,1.62
2019-05-26T16:22:05.900Z,1.65
2019-05-26T16:24:36.182Z,1.77
2019-05-26T16:27:18.585Z,2.65
2019-05-26T16:29:38.665Z,1.30
2019-05-26T16:32:09.104Z,2.90
2019-05-26T16:34:39.384Z,1.63
2019-05-26T16:37:09.678Z,1.32
2019-05-26T16:39:39.953Z,1.57
2019-05-26T16:42:10.477Z,1.65
2019-05-26T16:44:40.747Z,3.02
2019-05-26T16:47:11.030Z,3.20
2019-05-26T16:49:41.328Z,1.57
2019-05-26T16:52:11.589Z,1.48
2019-05-26T16:54:41.872Z,1.92
2019-05-26T16:57:12.165Z,1.92
2019-05-26T16:59:43.474Z,1.98
2019-05-26T17:02:13.861Z,1.55
2019-05-26T17:04:44.153Z,2.12
2019-05-26T17:07:14.444Z,1.50
2019-05-26T17:09:44.730Z,2.65
2019-05-26T17:12:15.006Z,3.83
2019-05-26T17:14:45.280Z,1.92
2019-05-26T17:17:15.584Z,1.87
2019-05-26T17:19:45.858Z,1.30
2019-05-26T17:22:16.147Z,1.62
2019-05-26T17:24:46.443Z,1.22
2019-05-26T17:27:16.738Z,3.35
2019-05-26T17:29:47.327Z,1.70
2019-05-26T17:32:17.579Z,1.40
2019-05-26T17:34:47.854Z,2.25
2019-05-26T17:37:18.139Z,2.25
2019-05-26T17:39:49.021Z,2.02
2019-05-26T17:42:20.658Z,1.70
2019-05-26T17:44:50.940Z,1.75
2019-05-26T17:47:29.926Z,2.17
2019-05-26T17:49:53.194Z,1.37
2019-05-26T17:52:23.501Z,1.85
2019-05-26T17:54:53.773Z,1.77
2019-05-26T17:57:24.058Z,2.70
2019-05-26T17:59:54.340Z,1.92
2019-05-26T18:02:24.652Z,1.37
2019-05-26T18:04:54.941Z,1.43
2019-05-26T18:07:25.213Z,1.80
2019-05-26T18:09:55.765Z,1.10
2019-05-26T18:12:26.034Z,1.90
2019-05-26T18:14:56.326Z,3.00
2019-05-26T18:17:26.593Z,2.05
2019-05-26T18:19:56.875Z,1.95
2019-05-26T18:22:27.151Z,3.47
2019-05-26T18:24:59.088Z,2.72
2019-05-26T18:27:30.213Z,1.62
2019-05-26T18:30:00.505Z,2.10
2019-05-26T18:32:30.779Z,1.53
2019-05-26T18:35:01.073Z,1.60
2019-05-26T18:37:31.518Z,1.65
2019-05-26T18:40:01.971Z,1.47
2019-05-26T18:42:32.269Z,1.50
2019-05-26T18:45:02.547Z,1.82
2019-05-26T18:47:32.994Z,1.30
2019-05-26T18:50:03.706Z,1.40
2019-05-26T18:52:34.057Z,1.57
2019-05-26T18:55:05.272Z,1.95
2019-05-26T18:57:35.565Z,1.55
2019-05-26T19:00:10.981Z,2.30
2019-05-26T19:02:41.260Z,1.30
2019-05-26T19:05:11.858Z,1.60
2019-05-26T19:07:42.138Z,2.15
2019-05-26T19:10:14.698Z,1.30
2019-05-26T19:12:44.978Z,1.80
2019-05-26T19:15:15.665Z,2.30
2019-05-26T19:17:45.951Z,1.50
2019-05-26T19:20:17.464Z,1.53
2019-05-26T19:22:47.818Z,1.32
2019-05-26T19:25:18.148Z,1.65
2019-05-26T19:27:48.899Z,1.62
2019-05-26T19:30:19.822Z,1.30
2019-05-26T19:32:50.487Z,1.42
2019-05-26T19:35:20.866Z,1.42
2019-05-26T19:37:51.135Z,1.40
2019-05-26T19:40:21.440Z,2.45
2019-05-26T19:42:51.710Z,1.47
2019-05-26T19:45:21.998Z,1.35
2019-05-26T19:47:52.278Z,1.35
2019-05-26T19:50:22.556Z,0.83
2019-05-26T19:52:53.097Z,1.40
2019-05-26T19:55:23.764Z,1.98
2019-05-26T19:57:54.056Z,1.30
2019-05-26T20:00:25.027Z,2.45
2019-05-26T20:02:55.626Z,1.98
2019-05-26T20:05:25.915Z,1.40
2019-05-26T20:07:57.615Z,1.60
2019-05-26T20:10:29.249Z,1.77
2019-05-26T20:12:59.533Z,2.30
2019-05-26T20:15:29.820Z,2.72
2019-05-26T20:18:00.104Z,1.17
2019-05-26T20:20:30.381Z,0.95
2019-05-26T20:23:00.659Z,1.20
2019-05-26T20:25:30.930Z,1.55
2019-05-26T20:28:01.217Z,3.72
2019-05-26T20:30:31.492Z,1.92
2019-05-26T20:33:01.843Z,2.05
2019-05-26T20:35:32.126Z,1.70
2019-05-26T20:38:02.399Z,1.67
2019-05-26T20:40:32.674Z,2.75
2019-05-26T20:43:03.275Z,1.80
2019-05-26T20:45:33.565Z,2.17
2019-05-26T20:48:03.852Z,1.80
2019-05-26T20:50:35.507Z,1.32
2019-05-26T20:53:06.932Z,1.40
2019-05-26T20:55:37.224Z,1.55
2019-05-26T20:58:07.507Z,1.57
2019-05-26T21:00:38.104Z,1.57
2019-05-26T21:03:08.384Z,3.98
2019-05-26T21:05:38.655Z,2.45
2019-05-26T21:08:08.932Z,1.42
2019-05-26T21:10:39.625Z,2.47
2019-05-26T21:13:10.013Z,1.53
2019-05-26T21:15:40.282Z,1.33
2019-05-26T21:18:10.564Z,3.10
2019-05-26T21:20:40.840Z,2.23
2019-05-26T21:23:11.126Z,1.37
2019-05-26T21:25:41.397Z,1.50
2019-05-26T21:28:11.694Z,3.27
2019-05-26T21:30:42.192Z,1.85
2019-05-26T21:33:12.470Z,2.25
2019-05-26T21:35:42.767Z,1.75
2019-05-26T21:38:13.036Z,1.30
2019-05-26T21:40:43.325Z,1.65
2019-05-26T21:43:13.611Z,1.00
2019-05-26T21:45:43.911Z,2.58
2019-05-26T21:48:14.193Z,1.20
2019-05-26T21:50:44.469Z,1.03
2019-05-26T21:53:14.754Z,1.30
2019-05-26T21:55:45.256Z,1.30
2019-05-26T21:58:15.557Z,1.10
2019-05-26T22:00:48.915Z,2.47
2019-05-26T22:03:19.263Z,1.23
2019-05-26T22:05:50.039Z,1.65
2019-05-26T22:08:21.872Z,1.57
2019-05-26T22:10:52.148Z,1.17
2019-05-26T22:13:22.434Z,1.20
2019-05-26T22:15:52.703Z,1.80
2019-05-26T22:18:22.993Z,1.87
2019-05-26T22:20:54.049Z,2.50
2019-05-26T22:23:24.333Z,1.40
2019-05-26T22:25:54.645Z,2.77
2019-05-26T22:28:24.925Z,1.40
2019-05-26T22:30:55.203Z,1.20
2019-05-26T22:33:25.535Z,1.17
2019-05-26T22:35:56.071Z,1.12
2019-05-26T22:38:26.360Z,2.22
2019-05-26T22:40:57.410Z,1.30
2019-05-26T22:43:27.714Z,1.98
2019-05-26T22:45:58.004Z,1.72
2019-05-26T22:48:28.344Z,1.70
2019-05-26T22:50:58.694Z,1.60
2019-05-26T22:53:29.004Z,1.47
2019-05-26T22:55:59.343Z,1.10
2019-05-26T22:58:29.622Z,1.45
2019-05-26T23:00:59.912Z,1.30
2019-05-26T23:03:31.247Z,1.30
2019-05-26T23:06:02.720Z,1.70
2019-05-26T23:08:32.952Z,1.57
2019-05-26T23:11:03.231Z,1.70
2019-05-26T23:13:33.507Z,2.50
2019-05-26T23:16:03.798Z,1.50
2019-05-26T23:18:34.358Z,1.77
2019-05-26T23:21:04.641Z,1.27
2019-05-26T23:23:34.924Z,1.50
2019-05-26T23:26:05.211Z,1.45
2019-05-26T23:28:35.501Z,2.65
2019-05-26T23:31:05.860Z,2.00
2019-05-26T23:33:36.157Z,2.05
2019-05-26T23:36:06.414Z,1.97
2019-05-26T23:38:36.700Z,1.60
2019-05-26T23:41:06.982Z,1.40
2019-05-26T23:43:37.258Z,1.62
2019-05-26T23:46:08.069Z,1.55
2019-05-26T23:48:38.360Z,1.32
2019-05-26T23:51:08.636Z,2.10
2019-05-26T23:53:38.933Z,1.47
2019-05-26T23:56:09.287Z,2.07
2019-05-26T23:58:39.569Z,2.60
